ETIK

Illesheim Air Base Heliport

Storck Barracks, Germany
METAR ETIK 201256Z AUTO 28009KT 9999 CLR 17/05 A3038 RMK AO2 SLP292 T01650054 $
Observed Flight Rules
Oct-20 @ 12:56 UTC (21 minutes ago) Visual Flight Rules
Wind Visibility Clouds
280° at 9 knots 10,000+ meters
  • Clear skies
Temperatures Readings
Current 17°C / 63°F
Dewpoint 5°C / 41°F
Humidity 45%
Altimeter 30.38" Hg
Pressure 1029.2 hPa
Elevation 325
METAR ETIK 201256Z AUTO 28009KT 9999 CLR 17/05 A3038 RMK AO2 SLP292 T01650054 $
Observed Flight Rules
Oct-20 @ 12:56 UTC
(21 minutes ago)
VFR
Wind Visibility
280° at 9 knots 10,000+ meters
Clouds
  • Clear skies
Temperature Dewpoint
17°C / 63°F 5°C / 41°F
Humidity Altimeter Pressure
45% 30.38" Hg 1029.2 hPa